Berlin, Georgia
Current Conditions -  °F | °C
As of 12:55 PM on Tuesday 21 Oct 2014 (Local Time) from KMGR Reporting Station
Clear Clear  
Wind Chill: 75°   Ceiling: Unl
Heat Index: 75°   Visibility: 10mi
Dew Point: 55°   Wind: 7mph
Humidity: 50%   Direction: 320°NW
Pressure: 30.01"   Gusts: NA
Location:  31.07°N, 83.62°W
Report Text: KMGR 211655Z AUTO 32006KT 10SM CLR 24/13 A3001 RMK AO2
Loading
Personal Weather Stations






























Interactive Weather Map
Tropical Storm Tracking
New forecast layout! Learn more

10-Day Weather Forecast

Advertisements
Track Severe Weather on mobile